sensor_id;sensor_type;location;lat;lon;timestamp;temperature;humidity
1700;DHT22;847;48.058;7.810;2022-12-05T00:00:16;4.30;99.00
1700;DHT22;847;48.058;7.810;2022-12-05T00:02:44;4.30;99.00
1700;DHT22;847;48.058;7.810;2022-12-05T00:11:14;4.40;99.00
1700;DHT22;847;48.058;7.810;2022-12-05T00:13:48;4.40;99.00
1700;DHT22;847;48.058;7.810;2022-12-05T00:16:21;4.40;99.00
1700;DHT22;847;48.058;7.810;2022-12-05T00:21:38;4.20;99.00
1700;DHT22;847;48.058;7.810;2022-12-05T00:24:07;4.30;99.00
1700;DHT22;847;48.058;7.810;2022-12-05T00:26:43;4.20;99.00
1700;DHT22;847;48.058;7.810;2022-12-05T00:29:33;4.30;99.00
1700;DHT22;847;48.058;7.810;2022-12-05T00:32:00;4.30;99.00
1700;DHT22;847;48.058;7.810;2022-12-05T00:34:28;4.40;99.00
1700;DHT22;847;48.058;7.810;2022-12-05T00:36:55;4.40;99.00
1700;DHT22;847;48.058;7.810;2022-12-05T00:42:10;4.50;99.00
1700;DHT22;847;48.058;7.810;2022-12-05T00:44:56;4.50;99.00
1700;DHT22;847;48.058;7.810;2022-12-05T00:47:23;4.50;99.00
1700;DHT22;847;48.058;7.810;2022-12-05T00:49:54;4.60;99.00
1700;DHT22;847;48.058;7.810;2022-12-05T00:58:11;4.50;99.00
1700;DHT22;847;48.058;7.810;2022-12-05T01:00:38;4.50;99.00
1700;DHT22;847;48.058;7.810;2022-12-05T01:03:05;4.40;99.00
1700;DHT22;847;48.058;7.810;2022-12-05T01:05:33;4.40;99.00
1700;DHT22;847;48.058;7.810;2022-12-05T01:08:00;4.40;99.00
1700;DHT22;847;48.058;7.810;2022-12-05T01:16:14;4.30;99.00
1700;DHT22;847;48.058;7.810;2022-12-05T01:18:42;4.40;99.00
1700;DHT22;847;48.058;7.810;2022-12-05T01:21:09;4.40;99.00
1700;DHT22;847;48.058;7.810;2022-12-05T01:23:36;4.40;99.00
1700;DHT22;847;48.058;7.810;2022-12-05T01:49:32;4.40;99.00
1700;DHT22;847;48.058;7.810;2022-12-05T01:52:05;4.40;99.00
1700;DHT22;847;48.058;7.810;2022-12-05T01:54:34;4.40;99.00
1700;DHT22;847;48.058;7.810;2022-12-05T01:57:05;4.40;99.00
1700;DHT22;847;48.058;7.810;2022-12-05T01:59:37;4.40;99.00
1700;DHT22;847;48.058;7.810;2022-12-05T02:02:05;4.30;99.00
1700;DHT22;847;48.058;7.810;2022-12-05T02:04:37;4.30;99.00
1700;DHT22;847;48.058;7.810;2022-12-05T02:07:07;4.20;99.00
1700;DHT22;847;48.058;7.810;2022-12-05T02:20:07;4.30;99.00
1700;DHT22;847;48.058;7.810;2022-12-05T02:22:59;4.30;99.00
1700;DHT22;847;48.058;7.810;2022-12-05T02:29:02;4.20;99.00
1700;DHT22;847;48.058;7.810;2022-12-05T02:31:47;4.20;99.00
1700;DHT22;847;48.058;7.810;2022-12-05T02:40:18;4.20;99.00
1700;DHT22;847;48.058;7.810;2022-12-05T02:45:47;4.10;99.00
1700;DHT22;847;48.058;7.810;2022-12-05T02:48:31;4.10;99.00
1700;DHT22;847;48.058;7.810;2022-12-05T02:51:26;4.20;99.00
1700;DHT22;847;48.058;7.810;2022-12-05T02:54:02;4.20;99.00
1700;DHT22;847;48.058;7.810;2022-12-05T02:56:42;4.20;99.00
1700;DHT22;847;48.058;7.810;2022-12-05T02:59:33;4.10;99.00
1700;DHT22;847;48.058;7.810;2022-12-05T03:04:37;4.00;99.00
1700;DHT22;847;48.058;7.810;2022-12-05T03:07:07;4.00;99.00
1700;DHT22;847;48.058;7.810;2022-12-05T03:09:38;4.00;99.00
1700;DHT22;847;48.058;7.810;2022-12-05T03:27:46;4.10;99.00
1700;DHT22;847;48.058;7.810;2022-12-05T03:30:30;4.20;99.00
1700;DHT22;847;48.058;7.810;2022-12-05T03:33:04;4.20;99.00
1700;DHT22;847;48.058;7.810;2022-12-05T03:35:39;4.20;99.00
1700;DHT22;847;48.058;7.810;2022-12-05T03:38:16;4.30;99.00
1700;DHT22;847;48.058;7.810;2022-12-05T03:46:03;4.30;99.00
1700;DHT22;847;48.058;7.810;2022-12-05T03:48:34;4.30;99.00
1700;DHT22;847;48.058;7.810;2022-12-05T03:51:05;4.30;99.00
1700;DHT22;847;48.058;7.810;2022-12-05T03:56:33;4.40;99.00
1700;DHT22;847;48.058;7.810;2022-12-05T03:59:06;4.40;99.00
1700;DHT22;847;48.058;7.810;2022-12-05T04:01:46;4.40;99.00
1700;DHT22;847;48.058;7.810;2022-12-05T04:04:18;4.40;99.00
1700;DHT22;847;48.058;7.810;2022-12-05T04:06:49;4.30;99.00
1700;DHT22;847;48.058;7.810;2022-12-05T04:12:14;4.40;99.00
1700;DHT22;847;48.058;7.810;2022-12-05T04:14:46;4.40;99.00
1700;DHT22;847;48.058;7.810;2022-12-05T04:17:20;4.40;99.00
1700;DHT22;847;48.058;7.810;2022-12-05T04:19:53;4.40;99.00
1700;DHT22;847;48.058;7.810;2022-12-05T04:45:10;4.40;99.00
1700;DHT22;847;48.058;7.810;2022-12-05T05:01:02;4.70;99.00
1700;DHT22;847;48.058;7.810;2022-12-05T05:03:38;4.80;99.00
1700;DHT22;847;48.058;7.810;2022-12-05T05:16:43;4.90;99.00
1700;DHT22;847;48.058;7.810;2022-12-05T05:19:12;5.00;99.00
1700;DHT22;847;48.058;7.810;2022-12-05T05:27:34;5.10;99.00
1700;DHT22;847;48.058;7.810;2022-12-05T05:30:01;5.10;99.00
1700;DHT22;847;48.058;7.810;2022-12-05T05:32:47;5.10;99.00
1700;DHT22;847;48.058;7.810;2022-12-05T05:37:48;5.20;99.00
1700;DHT22;847;48.058;7.810;2022-12-05T05:40:20;5.20;99.00
1700;DHT22;847;48.058;7.810;2022-12-05T05:45:24;5.30;99.00
1700;DHT22;847;48.058;7.810;2022-12-05T05:51:14;5.30;99.00
1700;DHT22;847;48.058;7.810;2022-12-05T05:56:20;5.30;99.00
1700;DHT22;847;48.058;7.810;2022-12-05T06:01:23;5.30;99.00
1700;DHT22;847;48.058;7.810;2022-12-05T06:03:50;5.30;99.00
1700;DHT22;847;48.058;7.810;2022-12-05T06:06:19;5.30;99.00
1700;DHT22;847;48.058;7.810;2022-12-05T06:08:47;5.30;99.00
1700;DHT22;847;48.058;7.810;2022-12-05T06:11:16;5.30;99.00
1700;DHT22;847;48.058;7.810;2022-12-05T06:37:07;6.20;99.00
1700;DHT22;847;48.058;7.810;2022-12-05T06:39:34;6.10;99.00
1700;DHT22;847;48.058;7.810;2022-12-05T06:42:01;6.30;99.00
1700;DHT22;847;48.058;7.810;2022-12-05T06:44:28;6.40;99.00
1700;DHT22;847;48.058;7.810;2022-12-05T06:46:55;6.40;99.00
1700;DHT22;847;48.058;7.810;2022-12-05T06:49:23;6.60;99.00
1700;DHT22;847;48.058;7.810;2022-12-05T06:51:51;6.60;99.00
1700;DHT22;847;48.058;7.810;2022-12-05T06:54:20;6.70;99.00
1700;DHT22;847;48.058;7.810;2022-12-05T06:56:47;6.70;99.00
1700;DHT22;847;48.058;7.810;2022-12-05T06:59:14;6.70;99.00
1700;DHT22;847;48.058;7.810;2022-12-05T07:01:41;6.70;99.00
1700;DHT22;847;48.058;7.810;2022-12-05T07:04:12;6.60;99.00
1700;DHT22;847;48.058;7.810;2022-12-05T07:06:40;6.70;99.00
1700;DHT22;847;48.058;7.810;2022-12-05T07:09:08;6.60;99.00
1700;DHT22;847;48.058;7.810;2022-12-05T07:11:36;6.70;99.00
1700;DHT22;847;48.058;7.810;2022-12-05T07:14:04;6.70;99.00
1700;DHT22;847;48.058;7.810;2022-12-05T07:16:32;6.60;99.00
1700;DHT22;847;48.058;7.810;2022-12-05T07:26:46;6.90;99.00
1700;DHT22;847;48.058;7.810;2022-12-05T07:29:13;7.00;99.00
1700;DHT22;847;48.058;7.810;2022-12-05T08:01:15;7.10;99.00
1700;DHT22;847;48.058;7.810;2022-12-05T08:04:03;7.20;99.00
1700;DHT22;847;48.058;7.810;2022-12-05T08:06:32;6.80;99.00
1700;DHT22;847;48.058;7.810;2022-12-05T08:09:00;6.70;99.00
1700;DHT22;847;48.058;7.810;2022-12-05T08:14:16;6.50;99.00
1700;DHT22;847;48.058;7.810;2022-12-05T08:22:11;6.30;99.00
1700;DHT22;847;48.058;7.810;2022-12-05T08:24:38;6.30;99.00
1700;DHT22;847;48.058;7.810;2022-12-05T08:27:05;6.30;99.00
1700;DHT22;847;48.058;7.810;2022-12-05T08:29:34;6.20;99.00
1700;DHT22;847;48.058;7.810;2022-12-05T08:40:04;6.20;99.00
1700;DHT22;847;48.058;7.810;2022-12-05T08:42:41;6.20;99.00
1700;DHT22;847;48.058;7.810;2022-12-05T08:53:33;6.20;99.00
1700;DHT22;847;48.058;7.810;2022-12-05T08:56:16;6.20;99.00
1700;DHT22;847;48.058;7.810;2022-12-05T09:06:32;7.90;99.00
1700;DHT22;847;48.058;7.810;2022-12-05T09:09:02;8.30;97.50
1700;DHT22;847;48.058;7.810;2022-12-05T09:11:33;8.60;96.20
1700;DHT22;847;48.058;7.810;2022-12-05T09:14:01;8.80;94.80
1700;DHT22;847;48.058;7.810;2022-12-05T09:16:30;9.10;93.30
1700;DHT22;847;48.058;7.810;2022-12-05T10:09:13;10.20;86.80
1700;DHT22;847;48.058;7.810;2022-12-05T11:45:51;9.60;89.10
1700;DHT22;847;48.058;7.810;2022-12-05T11:48:33;9.60;88.90
1700;DHT22;847;48.058;7.810;2022-12-05T11:51:11;9.50;88.80
1700;DHT22;847;48.058;7.810;2022-12-05T12:06:49;9.20;88.40
1700;DHT22;847;48.058;7.810;2022-12-05T12:09:32;9.20;88.70
1700;DHT22;847;48.058;7.810;2022-12-05T12:15:02;9.20;88.90
1700;DHT22;847;48.058;7.810;2022-12-05T12:17:42;9.20;89.00
1700;DHT22;847;48.058;7.810;2022-12-05T12:20:24;9.00;89.00
1700;DHT22;847;48.058;7.810;2022-12-05T12:25:39;9.30;89.40
1700;DHT22;847;48.058;7.810;2022-12-05T12:28:21;9.40;89.00
1700;DHT22;847;48.058;7.810;2022-12-05T12:31:04;9.50;88.70
1700;DHT22;847;48.058;7.810;2022-12-05T12:33:49;9.50;88.40
1700;DHT22;847;48.058;7.810;2022-12-05T12:36:25;9.40;88.40
1700;DHT22;847;48.058;7.810;2022-12-05T12:39:13;9.40;88.50
1700;DHT22;847;48.058;7.810;2022-12-05T12:42:07;9.40;88.50
1700;DHT22;847;48.058;7.810;2022-12-05T12:45:25;9.30;87.80
1700;DHT22;847;48.058;7.810;2022-12-05T14:50:31;7.80;93.30
1700;DHT22;847;48.058;7.810;2022-12-05T15:14:52;7.70;94.10
1700;DHT22;847;48.058;7.810;2022-12-05T15:17:37;7.70;93.90
1700;DHT22;847;48.058;7.810;2022-12-05T15:22:40;7.60;93.80
1700;DHT22;847;48.058;7.810;2022-12-05T15:40:45;7.40;94.00
1700;DHT22;847;48.058;7.810;2022-12-05T15:43:27;7.40;94.00
1700;DHT22;847;48.058;7.810;2022-12-05T15:46:07;7.30;94.40
1700;DHT22;847;48.058;7.810;2022-12-05T15:56:47;7.20;95.00
1700;DHT22;847;48.058;7.810;2022-12-05T16:02:16;7.10;95.20
1700;DHT22;847;48.058;7.810;2022-12-05T16:05:02;7.10;95.50
1700;DHT22;847;48.058;7.810;2022-12-05T16:07:31;7.10;95.60
1700;DHT22;847;48.058;7.810;2022-12-05T16:13:02;7.00;95.60
1700;DHT22;847;48.058;7.810;2022-12-05T16:19:22;7.00;96.10
1700;DHT22;847;48.058;7.810;2022-12-05T16:22:06;7.00;96.40
1700;DHT22;847;48.058;7.810;2022-12-05T16:24:58;7.00;96.40
1700;DHT22;847;48.058;7.810;2022-12-05T16:27:28;6.90;96.50
1700;DHT22;847;48.058;7.810;2022-12-05T16:30:18;6.80;96.80
1700;DHT22;847;48.058;7.810;2022-12-05T16:33:09;6.80;96.90
1700;DHT22;847;48.058;7.810;2022-12-05T16:35:50;6.70;97.00
1700;DHT22;847;48.058;7.810;2022-12-05T16:38:21;6.70;97.10
1700;DHT22;847;48.058;7.810;2022-12-05T16:49:30;6.50;98.40
1700;DHT22;847;48.058;7.810;2022-12-05T16:52:10;6.40;98.50
1700;DHT22;847;48.058;7.810;2022-12-05T16:54:40;6.40;98.70
1700;DHT22;847;48.058;7.810;2022-12-05T16:57:12;6.30;98.80
1700;DHT22;847;48.058;7.810;2022-12-05T17:02:23;6.20;99.00
1700;DHT22;847;48.058;7.810;2022-12-05T17:04:57;6.10;99.00
1700;DHT22;847;48.058;7.810;2022-12-05T17:07:33;6.00;99.00
1700;DHT22;847;48.058;7.810;2022-12-05T17:10:07;6.00;99.00
1700;DHT22;847;48.058;7.810;2022-12-05T17:12:35;6.00;99.00
1700;DHT22;847;48.058;7.810;2022-12-05T17:15:04;6.00;99.00
1700;DHT22;847;48.058;7.810;2022-12-05T17:17:37;5.90;99.00
1700;DHT22;847;48.058;7.810;2022-12-05T17:20:07;5.90;99.00
1700;DHT22;847;48.058;7.810;2022-12-05T17:22:35;5.90;99.00
1700;DHT22;847;48.058;7.810;2022-12-05T17:25:16;6.00;99.00
1700;DHT22;847;48.058;7.810;2022-12-05T17:27:46;6.00;99.00
1700;DHT22;847;48.058;7.810;2022-12-05T17:30:16;5.90;99.00
1700;DHT22;847;48.058;7.810;2022-12-05T17:32:46;5.90;99.00
1700;DHT22;847;48.058;7.810;2022-12-05T17:35:19;5.80;99.00
1700;DHT22;847;48.058;7.810;2022-12-05T17:37:47;5.80;99.00
1700;DHT22;847;48.058;7.810;2022-12-05T17:40:15;5.80;99.00
1700;DHT22;847;48.058;7.810;2022-12-05T17:42:45;5.70;99.00
1700;DHT22;847;48.058;7.810;2022-12-05T17:45:28;5.70;99.00
1700;DHT22;847;48.058;7.810;2022-12-05T17:48:00;5.70;99.00
1700;DHT22;847;48.058;7.810;2022-12-05T17:50:35;5.60;99.00
1700;DHT22;847;48.058;7.810;2022-12-05T17:53:12;5.50;99.00
1700;DHT22;847;48.058;7.810;2022-12-05T17:55:49;5.50;99.00
1700;DHT22;847;48.058;7.810;2022-12-05T17:58:19;5.50;99.00
1700;DHT22;847;48.058;7.810;2022-12-05T18:00:52;5.50;99.00
1700;DHT22;847;48.058;7.810;2022-12-05T18:03:22;5.50;99.00
1700;DHT22;847;48.058;7.810;2022-12-05T18:06:02;5.50;99.00
1700;DHT22;847;48.058;7.810;2022-12-05T18:08:31;5.40;99.00
1700;DHT22;847;48.058;7.810;2022-12-05T18:11:05;5.40;99.00
1700;DHT22;847;48.058;7.810;2022-12-05T18:13:34;5.60;99.00
1700;DHT22;847;48.058;7.810;2022-12-05T18:16:02;6.10;99.00
1700;DHT22;847;48.058;7.810;2022-12-05T18:18:29;6.30;99.00
1700;DHT22;847;48.058;7.810;2022-12-05T18:21:08;6.60;99.00
1700;DHT22;847;48.058;7.810;2022-12-05T18:23:36;6.50;99.00
1700;DHT22;847;48.058;7.810;2022-12-05T18:26:05;6.40;99.00
1700;DHT22;847;48.058;7.810;2022-12-05T18:28:37;6.50;99.00
1700;DHT22;847;48.058;7.810;2022-12-05T18:31:09;6.40;98.80
1700;DHT22;847;48.058;7.810;2022-12-05T18:33:51;6.40;98.90
1700;DHT22;847;48.058;7.810;2022-12-05T18:36:35;6.50;99.00
1700;DHT22;847;48.058;7.810;2022-12-05T18:39:04;6.50;99.00
1700;DHT22;847;48.058;7.810;2022-12-05T18:41:32;6.50;99.00
1700;DHT22;847;48.058;7.810;2022-12-05T18:44:03;6.60;99.00
1700;DHT22;847;48.058;7.810;2022-12-05T18:46:31;6.60;99.00
1700;DHT22;847;48.058;7.810;2022-12-05T18:48:59;6.90;98.60
1700;DHT22;847;48.058;7.810;2022-12-05T18:51:27;7.00;97.00
1700;DHT22;847;48.058;7.810;2022-12-05T18:53:56;6.90;96.80
1700;DHT22;847;48.058;7.810;2022-12-05T18:56:25;6.90;96.50
1700;DHT22;847;48.058;7.810;2022-12-05T18:58:56;6.90;96.10
1700;DHT22;847;48.058;7.810;2022-12-05T19:01:25;6.80;96.10
1700;DHT22;847;48.058;7.810;2022-12-05T19:03:54;6.80;96.10
1700;DHT22;847;48.058;7.810;2022-12-05T19:06:23;6.60;95.90
1700;DHT22;847;48.058;7.810;2022-12-05T19:08:55;6.50;95.90
1700;DHT22;847;48.058;7.810;2022-12-05T19:11:25;6.50;96.10
1700;DHT22;847;48.058;7.810;2022-12-05T19:13:54;6.50;96.40
1700;DHT22;847;48.058;7.810;2022-12-05T19:16:24;6.50;96.50
1700;DHT22;847;48.058;7.810;2022-12-05T19:18:54;6.50;95.80
1700;DHT22;847;48.058;7.810;2022-12-05T19:21:23;6.40;96.00
1700;DHT22;847;48.058;7.810;2022-12-05T19:23:59;6.30;96.10
1700;DHT22;847;48.058;7.810;2022-12-05T19:26:34;6.20;96.30
1700;DHT22;847;48.058;7.810;2022-12-05T19:29:03;6.10;96.30
1700;DHT22;847;48.058;7.810;2022-12-05T19:31:31;6.00;96.30
1700;DHT22;847;48.058;7.810;2022-12-05T19:34:01;5.80;96.30
1700;DHT22;847;48.058;7.810;2022-12-05T19:36:32;5.80;97.30
1700;DHT22;847;48.058;7.810;2022-12-05T19:39:09;6.10;96.80
1700;DHT22;847;48.058;7.810;2022-12-05T19:41:50;6.50;94.40
1700;DHT22;847;48.058;7.810;2022-12-05T19:44:23;6.50;94.30
1700;DHT22;847;48.058;7.810;2022-12-05T19:46:53;6.40;93.40
1700;DHT22;847;48.058;7.810;2022-12-05T19:49:22;6.20;94.30
1700;DHT22;847;48.058;7.810;2022-12-05T19:51:50;6.00;95.00
1700;DHT22;847;48.058;7.810;2022-12-05T19:54:26;6.10;94.40
1700;DHT22;847;48.058;7.810;2022-12-05T19:56:55;5.80;94.80
1700;DHT22;847;48.058;7.810;2022-12-05T19:59:27;5.70;94.90
1700;DHT22;847;48.058;7.810;2022-12-05T20:01:58;5.60;95.50
1700;DHT22;847;48.058;7.810;2022-12-05T20:04:28;5.60;95.60
1700;DHT22;847;48.058;7.810;2022-12-05T20:06:59;5.60;95.70
1700;DHT22;847;48.058;7.810;2022-12-05T20:09:35;6.00;94.40
1700;DHT22;847;48.058;7.810;2022-12-05T20:12:04;6.00;93.40
1700;DHT22;847;48.058;7.810;2022-12-05T20:14:35;5.70;94.80
1700;DHT22;847;48.058;7.810;2022-12-05T20:17:03;5.40;95.90
1700;DHT22;847;48.058;7.810;2022-12-05T20:19:38;5.40;96.40
1700;DHT22;847;48.058;7.810;2022-12-05T20:22:07;5.20;97.30
1700;DHT22;847;48.058;7.810;2022-12-05T20:24:36;5.20;97.80
1700;DHT22;847;48.058;7.810;2022-12-05T20:27:04;5.10;98.00
1700;DHT22;847;48.058;7.810;2022-12-05T20:29:32;5.20;98.20
1700;DHT22;847;48.058;7.810;2022-12-05T20:31:59;5.10;98.60
1700;DHT22;847;48.058;7.810;2022-12-05T20:34:27;5.20;98.80
1700;DHT22;847;48.058;7.810;2022-12-05T20:36:58;5.50;97.00
1700;DHT22;847;48.058;7.810;2022-12-05T20:39:25;5.30;97.30
1700;DHT22;847;48.058;7.810;2022-12-05T20:41:55;5.60;96.50
1700;DHT22;847;48.058;7.810;2022-12-05T20:44:22;5.40;96.00
1700;DHT22;847;48.058;7.810;2022-12-05T20:46:52;5.30;96.80
1700;DHT22;847;48.058;7.810;2022-12-05T20:49:20;5.10;97.20
1700;DHT22;847;48.058;7.810;2022-12-05T20:51:49;5.00;97.40
1700;DHT22;847;48.058;7.810;2022-12-05T20:54:16;4.90;98.10
1700;DHT22;847;48.058;7.810;2022-12-05T20:56:43;4.80;98.00
1700;DHT22;847;48.058;7.810;2022-12-05T20:59:13;4.50;97.70
1700;DHT22;847;48.058;7.810;2022-12-05T21:01:42;4.30;98.80
1700;DHT22;847;48.058;7.810;2022-12-05T21:04:10;4.30;99.00
1700;DHT22;847;48.058;7.810;2022-12-05T21:06:39;4.40;99.00
1700;DHT22;847;48.058;7.810;2022-12-05T21:09:09;4.40;99.00
1700;DHT22;847;48.058;7.810;2022-12-05T21:11:40;4.30;99.00
1700;DHT22;847;48.058;7.810;2022-12-05T21:14:08;4.50;99.00
1700;DHT22;847;48.058;7.810;2022-12-05T21:16:36;4.50;99.00
1700;DHT22;847;48.058;7.810;2022-12-05T21:19:03;4.60;98.50
1700;DHT22;847;48.058;7.810;2022-12-05T21:21:31;4.50;98.70
1700;DHT22;847;48.058;7.810;2022-12-05T21:24:00;4.40;99.00
1700;DHT22;847;48.058;7.810;2022-12-05T21:26:29;4.40;99.00
1700;DHT22;847;48.058;7.810;2022-12-05T21:28:57;4.40;99.00
1700;DHT22;847;48.058;7.810;2022-12-05T21:31:27;4.40;98.90
1700;DHT22;847;48.058;7.810;2022-12-05T21:33:57;4.40;99.00
1700;DHT22;847;48.058;7.810;2022-12-05T21:36:26;4.40;98.70
1700;DHT22;847;48.058;7.810;2022-12-05T21:38:54;4.30;98.90
1700;DHT22;847;48.058;7.810;2022-12-05T21:41:21;4.30;99.00
1700;DHT22;847;48.058;7.810;2022-12-05T21:43:48;4.20;99.00
1700;DHT22;847;48.058;7.810;2022-12-05T21:46:15;4.10;99.00
1700;DHT22;847;48.058;7.810;2022-12-05T21:48:42;4.10;99.00
1700;DHT22;847;48.058;7.810;2022-12-05T21:51:12;4.30;99.00
1700;DHT22;847;48.058;7.810;2022-12-05T21:53:39;4.40;99.00
1700;DHT22;847;48.058;7.810;2022-12-05T21:56:07;4.50;98.70
1700;DHT22;847;48.058;7.810;2022-12-05T21:58:35;4.50;97.90
1700;DHT22;847;48.058;7.810;2022-12-05T22:01:03;4.50;98.00
1700;DHT22;847;48.058;7.810;2022-12-05T22:03:30;4.40;98.90
1700;DHT22;847;48.058;7.810;2022-12-05T22:06:01;4.20;99.00
1700;DHT22;847;48.058;7.810;2022-12-05T22:08:30;4.10;99.00
1700;DHT22;847;48.058;7.810;2022-12-05T22:11:03;4.00;99.00
1700;DHT22;847;48.058;7.810;2022-12-05T22:13:30;4.10;99.00
1700;DHT22;847;48.058;7.810;2022-12-05T22:15:59;4.30;99.00
1700;DHT22;847;48.058;7.810;2022-12-05T22:18:26;4.30;99.00
1700;DHT22;847;48.058;7.810;2022-12-05T22:20:55;4.20;99.00
1700;DHT22;847;48.058;7.810;2022-12-05T22:23:23;4.10;99.00
1700;DHT22;847;48.058;7.810;2022-12-05T22:25:59;4.10;99.00
1700;DHT22;847;48.058;7.810;2022-12-05T22:28:27;4.00;99.00
1700;DHT22;847;48.058;7.810;2022-12-05T22:30:54;3.90;99.00
1700;DHT22;847;48.058;7.810;2022-12-05T22:33:21;3.70;99.00
1700;DHT22;847;48.058;7.810;2022-12-05T22:35:50;3.70;99.00
1700;DHT22;847;48.058;7.810;2022-12-05T22:38:17;3.60;99.00
1700;DHT22;847;48.058;7.810;2022-12-05T22:40:45;3.60;99.00
1700;DHT22;847;48.058;7.810;2022-12-05T22:43:13;3.70;99.00
1700;DHT22;847;48.058;7.810;2022-12-05T22:45:40;3.80;99.00
1700;DHT22;847;48.058;7.810;2022-12-05T22:48:07;3.80;99.00
1700;DHT22;847;48.058;7.810;2022-12-05T22:50:34;3.80;99.00
1700;DHT22;847;48.058;7.810;2022-12-05T22:53:01;3.90;99.00
1700;DHT22;847;48.058;7.810;2022-12-05T22:55:28;3.80;99.00
1700;DHT22;847;48.058;7.810;2022-12-05T22:57:55;3.80;99.00
1700;DHT22;847;48.058;7.810;2022-12-05T23:00:23;3.70;99.00
1700;DHT22;847;48.058;7.810;2022-12-05T23:02:52;3.70;99.00
1700;DHT22;847;48.058;7.810;2022-12-05T23:05:19;3.70;99.00
1700;DHT22;847;48.058;7.810;2022-12-05T23:07:46;3.70;99.00
1700;DHT22;847;48.058;7.810;2022-12-05T23:10:13;3.70;99.00
1700;DHT22;847;48.058;7.810;2022-12-05T23:12:41;3.70;99.00
1700;DHT22;847;48.058;7.810;2022-12-05T23:15:09;3.80;99.00
1700;DHT22;847;48.058;7.810;2022-12-05T23:17:39;3.80;99.00
1700;DHT22;847;48.058;7.810;2022-12-05T23:20:08;3.70;99.00
1700;DHT22;847;48.058;7.810;2022-12-05T23:22:35;3.70;99.00
1700;DHT22;847;48.058;7.810;2022-12-05T23:25:03;3.80;99.00
1700;DHT22;847;48.058;7.810;2022-12-05T23:27:31;3.80;99.00
1700;DHT22;847;48.058;7.810;2022-12-05T23:29:59;3.90;99.00
1700;DHT22;847;48.058;7.810;2022-12-05T23:32:26;3.80;99.00
1700;DHT22;847;48.058;7.810;2022-12-05T23:34:55;3.90;99.00
1700;DHT22;847;48.058;7.810;2022-12-05T23:37:22;3.80;99.00
1700;DHT22;847;48.058;7.810;2022-12-05T23:39:50;3.80;99.00
1700;DHT22;847;48.058;7.810;2022-12-05T23:42:17;3.90;99.00
1700;DHT22;847;48.058;7.810;2022-12-05T23:44:45;3.90;99.00
1700;DHT22;847;48.058;7.810;2022-12-05T23:47:12;3.90;99.00
1700;DHT22;847;48.058;7.810;2022-12-05T23:49:40;3.80;99.00
1700;DHT22;847;48.058;7.810;2022-12-05T23:52:12;3.80;99.00
1700;DHT22;847;48.058;7.810;2022-12-05T23:54:46;3.70;99.00
1700;DHT22;847;48.058;7.810;2022-12-05T23:57:17;3.70;99.00
1700;DHT22;847;48.058;7.810;2022-12-05T23:59:49;3.70;99.00
